Time;durP1;ratioP1;P1;durP2;ratioP2;P2;SDS_P1;SDS_P2;PMS_P1;PMS_P2;Temp;Humidity;BMP_temperature;BMP_pressure;BME280_temperature;BME280_humidity;BME280_pressure;Samples;Min_cycle;Max_cycle;Signal;HPM_P1;HPM_P2
2022/08/21 00:01:20;;;;;;;24.98;19.08;;;19.00;99.90;;;;;;5113367;28;20095;-76
2022/08/21 00:03:45;;;;;;;29.02;21.45;;;19.00;99.90;;;;;;5111446;28;20065;-75
2022/08/21 00:06:11;;;;;;;35.15;22.45;;;19.00;99.90;;;;;;5113152;28;20062;-77
2022/08/21 00:08:37;;;;;;;28.30;21.40;;;18.90;99.90;;;;;;5112647;28;20020;-76
2022/08/21 00:11:04;;;;;;;31.60;19.98;;;18.90;99.90;;;;;;5111781;28;20075;-78
2022/08/21 00:13:29;;;;;;;32.33;22.92;;;18.90;99.90;;;;;;5111343;28;20020;-75
2022/08/21 00:15:55;;;;;;;29.80;23.00;;;18.90;99.90;;;;;;5113285;28;20146;-79
2022/08/21 00:18:20;;;;;;;29.25;22.38;;;18.90;99.90;;;;;;5112638;28;20425;-78
2022/08/21 00:20:47;;;;;;;32.00;21.60;;;18.90;99.90;;;;;;5113047;28;20030;-76
2022/08/21 00:23:13;;;;;;;30.95;21.45;;;18.90;99.90;;;;;;5112505;28;20069;-77
2022/08/21 00:25:41;;;;;;;37.15;23.25;;;18.90;99.90;;;;;;5113174;28;20093;-76
2022/08/21 00:28:07;;;;;;;28.52;20.00;;;19.00;99.90;;;;;;5114294;28;20024;-77
2022/08/21 00:30:33;;;;;;;27.77;21.33;;;19.00;99.90;;;;;;5116695;28;20548;-77
2022/08/21 00:33:00;;;;;;;29.45;21.90;;;19.00;99.90;;;;;;5115027;28;20027;-77
2022/08/21 00:35:30;;;;;;;26.73;20.50;;;19.00;99.90;;;;;;5115563;28;20472;-77
2022/08/21 00:37:56;;;;;;;25.92;21.00;;;19.00;99.90;;;;;;5114548;28;20061;-77
2022/08/21 00:40:26;;;;;;;30.85;21.67;;;19.00;99.90;;;;;;5115225;28;20015;-76
2022/08/21 00:42:52;;;;;;;30.45;21.92;;;19.00;99.90;;;;;;5114721;28;20029;-77
2022/08/21 00:45:18;;;;;;;32.08;21.27;;;19.00;99.90;;;;;;5115225;28;20027;-77
2022/08/21 00:47:44;;;;;;;27.23;21.63;;;19.00;99.90;;;;;;5114666;28;20030;-76
2022/08/21 00:50:11;;;;;;;29.88;21.77;;;19.00;99.90;;;;;;5116115;28;20051;-77
2022/08/21 00:52:39;;;;;;;29.60;21.67;;;19.00;99.90;;;;;;5115643;28;20062;-75
2022/08/21 00:55:08;;;;;;;28.25;19.95;;;19.00;99.90;;;;;;5116091;28;20016;-77
2022/08/21 00:57:39;;;;;;;27.85;19.50;;;19.00;99.90;;;;;;5115656;27;20362;-77
2022/08/21 01:00:08;;;;;;;34.83;20.90;;;19.00;99.90;;;;;;5114649;28;20020;-77
2022/08/21 01:02:34;;;;;;;26.30;21.05;;;19.00;99.90;;;;;;5114349;28;20026;-76
2022/08/21 01:04:59;;;;;;;30.80;21.88;;;19.00;99.90;;;;;;5115872;28;20098;-76
2022/08/21 01:07:25;;;;;;;29.52;20.65;;;19.00;99.90;;;;;;5114450;28;20031;-76
2022/08/21 01:09:51;;;;;;;30.88;20.88;;;19.00;99.90;;;;;;5114136;28;20031;-78
2022/08/21 01:12:17;;;;;;;25.30;19.35;;;19.00;99.90;;;;;;5116016;28;20481;-76
2022/08/21 01:14:44;;;;;;;28.52;21.08;;;19.00;99.90;;;;;;5113986;28;20051;-77
2022/08/21 01:17:13;;;;;;;24.85;21.10;;;18.90;99.90;;;;;;5114481;28;20361;-79
2022/08/21 01:19:39;;;;;;;31.33;21.00;;;18.90;99.90;;;;;;5114094;28;20019;-79
2022/08/21 01:22:05;;;;;;;28.08;21.17;;;18.90;99.90;;;;;;5115584;28;20020;-79
2022/08/21 01:24:33;;;;;;;27.98;20.27;;;18.80;99.90;;;;;;5096783;28;20023;-79
2022/08/21 01:27:00;;;;;;;25.67;18.60;;;18.80;99.90;;;;;;5095213;28;20039;-79
2022/08/21 01:29:47;;;;;;;34.00;21.92;;;18.80;99.90;;;;;;5111229;27;20020;-78
2022/08/21 01:32:17;;;;;;;27.58;20.52;;;18.80;99.90;;;;;;5115604;28;20054;-78
2022/08/21 01:34:46;;;;;;;31.02;21.00;;;18.70;99.90;;;;;;5114531;28;20381;-79
2022/08/21 01:37:13;;;;;;;33.70;23.02;;;18.70;99.90;;;;;;5114541;28;20052;-78
2022/08/21 01:39:40;;;;;;;30.83;22.88;;;18.70;99.90;;;;;;5115188;28;20078;-79
2022/08/21 01:42:06;;;;;;;28.60;21.63;;;18.70;99.90;;;;;;5115124;28;20075;-78
2022/08/21 01:44:32;;;;;;;34.55;22.38;;;18.70;99.90;;;;;;5115115;28;20023;-78
2022/08/21 01:47:01;;;;;;;28.67;22.50;;;18.70;99.90;;;;;;5115009;28;20034;-79
2022/08/21 01:49:27;;;;;;;27.65;20.75;;;18.70;99.90;;;;;;5114806;28;20058;-78
2022/08/21 01:51:53;;;;;;;27.80;20.95;;;18.70;99.90;;;;;;5114942;28;20389;-79
2022/08/21 01:54:19;;;;;;;27.67;20.02;;;18.70;99.90;;;;;;5114588;28;20026;-79
2022/08/21 01:56:48;;;;;;;26.40;21.00;;;18.70;99.90;;;;;;5114862;28;20023;-79
2022/08/21 01:59:14;;;;;;;35.45;22.85;;;18.70;99.90;;;;;;5113569;28;20016;-79
2022/08/21 02:01:39;;;;;;;35.95;24.70;;;18.70;99.90;;;;;;5114961;28;20027;-79
2022/08/21 02:04:06;;;;;;;36.00;24.85;;;18.70;99.90;;;;;;5114632;28;20153;-78
2022/08/21 02:06:33;;;;;;;33.47;23.30;;;18.70;99.90;;;;;;5113438;28;20504;-78
2022/08/21 02:08:58;;;;;;;34.30;24.10;;;18.70;99.90;;;;;;5114519;28;20088;-78
2022/08/21 02:11:24;;;;;;;38.55;25.67;;;18.70;99.90;;;;;;5114442;28;20032;-79
2022/08/21 02:13:50;;;;;;;38.67;25.55;;;18.70;99.90;;;;;;5114450;27;20059;-78
2022/08/21 02:16:16;;;;;;;40.83;25.67;;;18.70;99.90;;;;;;5114653;28;20016;-78
2022/08/21 02:18:43;;;;;;;31.90;24.65;;;18.70;99.90;;;;;;5114565;28;20106;-76
2022/08/21 02:21:08;;;;;;;31.08;23.77;;;18.70;99.90;;;;;;5114727;28;20043;-76
2022/08/21 02:23:34;;;;;;;36.30;24.98;;;18.70;99.90;;;;;;5114424;28;20489;-75
2022/08/21 02:26:02;;;;;;;33.45;25.45;;;18.70;99.90;;;;;;5114590;28;20380;-77
2022/08/21 02:28:28;;;;;;;33.25;23.17;;;18.80;99.90;;;;;;5114272;28;20499;-78
2022/08/21 02:30:55;;;;;;;32.15;24.15;;;18.80;99.90;;;;;;5113142;28;20047;-75
2022/08/21 02:33:22;;;;;;;33.50;23.45;;;18.80;99.90;;;;;;5113123;28;20019;-76
2022/08/21 02:35:48;;;;;;;27.83;20.38;;;18.90;99.90;;;;;;5114342;28;20019;-75
2022/08/21 02:38:21;;;;;;;31.10;23.70;;;18.90;99.90;;;;;;5114150;28;20107;-77
2022/08/21 02:40:48;;;;;;;32.20;22.90;;;18.90;99.90;;;;;;5114139;28;20027;-77
2022/08/21 02:43:16;;;;;;;38.53;23.55;;;18.90;99.90;;;;;;5114152;28;20106;-76
2022/08/21 02:45:43;;;;;;;31.60;23.20;;;18.90;99.90;;;;;;5114062;28;20023;-77
2022/08/21 02:48:12;;;;;;;34.25;23.48;;;18.90;99.90;;;;;;5114064;28;20027;-77
2022/08/21 02:50:40;;;;;;;28.42;22.30;;;18.90;99.90;;;;;;5112945;28;20074;-77
2022/08/21 02:53:08;;;;;;;33.70;21.75;;;18.90;99.90;;;;;;5113160;28;20038;-76
2022/08/21 02:55:35;;;;;;;31.77;22.52;;;18.90;99.90;;;;;;5113883;28;20024;-76
2022/08/21 02:58:03;;;;;;;36.42;24.45;;;18.90;99.90;;;;;;5113964;28;20015;-77
2022/08/21 03:00:30;;;;;;;34.45;23.83;;;18.90;99.90;;;;;;5112378;28;20495;-78
2022/08/21 03:02:56;;;;;;;32.35;23.98;;;18.90;99.90;;;;;;5113910;28;20051;-77
2022/08/21 03:05:23;;;;;;;29.20;21.90;;;18.90;99.90;;;;;;5113828;28;20031;-76
2022/08/21 03:07:49;;;;;;;33.50;22.85;;;19.00;99.90;;;;;;5113910;28;20032;-76
2022/08/21 03:10:16;;;;;;;32.40;23.02;;;18.90;99.90;;;;;;5113660;28;20027;-76
2022/08/21 03:12:41;;;;;;;31.48;23.13;;;18.90;99.90;;;;;;5112259;28;20028;-76
2022/08/21 03:15:10;;;;;;;28.77;21.92;;;18.90;99.90;;;;;;5112336;28;20072;-77
2022/08/21 03:17:36;;;;;;;30.23;22.00;;;18.90;99.90;;;;;;5113758;28;20028;-77
2022/08/21 03:20:04;;;;;;;29.52;21.65;;;18.90;99.90;;;;;;5113530;28;20026;-77
2022/08/21 03:22:29;;;;;;;31.63;22.27;;;18.80;99.90;;;;;;5113515;28;20027;-77
2022/08/21 03:24:56;;;;;;;30.15;22.30;;;18.80;99.90;;;;;;5112319;28;20568;-77
2022/08/21 03:27:25;;;;;;;35.03;22.77;;;18.80;99.90;;;;;;5112223;28;20404;-77
2022/08/21 03:29:51;;;;;;;32.13;22.80;;;18.80;99.90;;;;;;5093094;28;20016;-78
2022/08/21 03:32:16;;;;;;;30.42;23.83;;;18.80;99.90;;;;;;5093007;28;20036;-78
2022/08/21 03:34:42;;;;;;;32.83;24.05;;;18.70;99.90;;;;;;5091822;28;20024;-77
2022/08/21 03:37:09;;;;;;;27.25;21.45;;;18.70;99.90;;;;;;5093026;28;20457;-77
2022/08/21 03:39:35;;;;;;;27.63;21.45;;;18.70;99.90;;;;;;5093219;28;20051;-77
2022/08/21 03:42:00;;;;;;;33.00;24.40;;;18.80;99.90;;;;;;5092971;28;20052;-77
2022/08/21 03:44:28;;;;;;;32.60;22.65;;;18.70;99.90;;;;;;5093031;28;20025;-77
2022/08/21 03:46:54;;;;;;;28.27;21.65;;;18.70;99.90;;;;;;5091668;28;20025;-77
2022/08/21 03:49:20;;;;;;;30.30;22.58;;;18.80;99.90;;;;;;5093089;28;20465;-76
2022/08/21 03:51:46;;;;;;;31.75;21.80;;;18.70;99.90;;;;;;5091523;28;20150;-77
2022/08/21 03:54:12;;;;;;;33.20;21.88;;;18.80;99.90;;;;;;5091683;28;20031;-76
2022/08/21 03:56:39;;;;;;;28.10;21.17;;;18.80;99.90;;;;;;5092889;28;20024;-77
2022/08/21 03:59:05;;;;;;;30.58;22.08;;;18.80;99.90;;;;;;5091698;28;20028;-75
2022/08/21 04:01:31;;;;;;;36.20;23.55;;;18.70;99.90;;;;;;5093993;28;20018;-77
2022/08/21 04:03:56;;;;;;;36.65;23.77;;;18.80;99.90;;;;;;5096818;28;20024;-77
2022/08/21 04:06:22;;;;;;;35.95;23.20;;;18.80;99.90;;;;;;5096678;28;20026;-78
2022/08/21 04:08:48;;;;;;;33.58;22.65;;;18.80;99.90;;;;;;5095442;28;20118;-78
2022/08/21 04:11:14;;;;;;;30.23;20.70;;;18.70;99.90;;;;;;5095421;28;20114;-77
2022/08/21 04:13:40;;;;;;;30.05;22.67;;;18.70;99.90;;;;;;5096901;28;20082;-77
2022/08/21 04:16:06;;;;;;;33.55;21.13;;;18.70;99.90;;;;;;5096587;28;20024;-76
2022/08/21 04:18:32;;;;;;;31.80;22.48;;;18.70;99.90;;;;;;5096543;28;20059;-76
2022/08/21 04:21:01;;;;;;;33.97;23.52;;;18.80;99.90;;;;;;5095090;28;20481;-75
2022/08/21 04:23:27;;;;;;;33.05;21.80;;;18.70;99.90;;;;;;5109776;28;20020;-76
2022/08/21 04:25:54;;;;;;;33.60;24.70;;;18.70;99.90;;;;;;5095140;28;20400;-77
2022/08/21 04:28:20;;;;;;;31.60;23.00;;;18.70;99.90;;;;;;5112846;27;20026;-76
2022/08/21 04:30:46;;;;;;;35.33;23.17;;;18.80;99.90;;;;;;5137239;27;20015;-76
2022/08/21 04:33:12;;;;;;;33.13;24.80;;;18.80;99.90;;;;;;5137176;27;20079;-76
2022/08/21 04:35:37;;;;;;;33.85;23.27;;;18.80;99.90;;;;;;5137157;27;20023;-76
2022/08/21 04:38:03;;;;;;;33.05;23.88;;;18.80;99.90;;;;;;5137035;27;20027;-75
2022/08/21 04:40:29;;;;;;;32.85;24.08;;;18.90;99.90;;;;;;5135764;27;20030;-75
2022/08/21 04:43:06;;;;;;;38.95;24.17;;;18.90;99.90;;;;;;5137144;27;20023;-75
2022/08/21 04:45:41;;;;;;;34.42;23.17;;;18.90;99.90;;;;;;5136982;27;20380;-77
2022/08/21 04:48:09;;;;;;;36.33;23.20;;;19.00;99.90;;;;;;5137374;27;20020;-75
2022/08/21 04:51:06;;;;;;;30.48;23.08;;;19.00;99.90;;;;;;5135584;27;20049;-77
2022/08/21 04:53:42;;;;;;;36.83;24.40;;;19.00;99.90;;;;;;5129299;27;20515;-75
2022/08/21 04:56:14;;;;;;;36.85;22.98;;;19.10;99.90;;;;;;5117510;27;20019;-76
2022/08/21 04:58:41;;;;;;;38.10;24.63;;;19.10;99.90;;;;;;5133737;27;20451;-77
2022/08/21 05:01:11;;;;;;;34.35;25.13;;;19.10;99.90;;;;;;5129111;27;20097;-77
2022/08/21 05:03:38;;;;;;;35.30;25.40;;;19.10;99.90;;;;;;5117095;27;20023;-76
2022/08/21 05:06:06;;;;;;;36.42;23.88;;;19.20;99.90;;;;;;5136210;27;20035;-77
2022/08/21 05:08:32;;;;;;;33.13;23.25;;;19.20;99.90;;;;;;5136167;27;20020;-75
2022/08/21 05:10:58;;;;;;;41.78;25.55;;;19.30;99.90;;;;;;5132586;27;20050;-80
2022/08/21 05:13:24;;;;;;;33.75;23.42;;;19.40;99.90;;;;;;5134238;27;20099;-78
2022/08/21 05:15:49;;;;;;;37.97;23.67;;;19.40;99.90;;;;;;5121436;27;20016;-79
2022/08/21 05:18:15;;;;;;;31.27;24.52;;;19.50;99.90;;;;;;5136263;27;20023;-79
2022/08/21 05:20:40;;;;;;;34.55;23.80;;;19.60;99.90;;;;;;5134618;27;20536;-77
2022/08/21 05:23:12;;;;;;;36.58;24.17;;;19.70;99.90;;;;;;5129323;27;20058;-79
2022/08/21 05:25:38;;;;;;;38.10;25.35;;;19.80;99.90;;;;;;5134863;27;20023;-79
2022/08/21 05:28:05;;;;;;;29.88;21.70;;;19.80;99.90;;;;;;5133280;27;20019;-79
2022/08/21 05:30:31;;;;;;;31.70;22.08;;;19.90;99.90;;;;;;5135188;27;20027;-79
2022/08/21 05:33:02;;;;;;;27.40;20.27;;;19.90;99.90;;;;;;5135841;27;20437;-79
2022/08/21 05:35:29;;;;;;;30.40;21.65;;;20.00;99.90;;;;;;5135626;27;20047;-79
2022/08/21 05:37:56;;;;;;;29.67;21.33;;;20.00;99.90;;;;;;5134243;27;20121;-79
2022/08/21 05:40:22;;;;;;;28.17;20.25;;;20.10;99.90;;;;;;5134209;27;20062;-79
2022/08/21 05:42:48;;;;;;;29.67;21.15;;;20.10;99.90;;;;;;5134494;27;20030;-79
2022/08/21 05:45:14;;;;;;;30.63;21.63;;;20.10;99.90;;;;;;5125536;27;20016;-80
2022/08/21 05:47:39;;;;;;;32.15;21.98;;;20.20;99.90;;;;;;5114663;27;20015;-79
2022/08/21 05:50:06;;;;;;;33.28;21.52;;;20.30;99.90;;;;;;5134084;27;20043;-79
2022/08/21 05:52:31;;;;;;;38.83;24.40;;;20.30;99.90;;;;;;5135172;27;20031;-77
2022/08/21 05:54:57;;;;;;;35.92;23.30;;;20.30;99.90;;;;;;5120387;27;20035;-78
2022/08/21 05:57:23;;;;;;;32.03;22.35;;;20.40;99.90;;;;;;5135245;27;20084;-78
2022/08/21 05:59:50;;;;;;;33.22;23.90;;;20.50;99.90;;;;;;5133624;27;20021;-78
2022/08/21 06:02:17;;;;;;;36.30;23.38;;;20.60;99.90;;;;;;5134621;27;20035;-79
2022/08/21 06:04:43;;;;;;;38.13;24.02;;;20.70;99.90;;;;;;5134919;27;20024;-79
2022/08/21 06:07:09;;;;;;;36.25;22.17;;;20.70;99.90;;;;;;5134936;27;20088;-78
2022/08/21 06:09:35;;;;;;;35.65;23.88;;;20.70;99.90;;;;;;5134080;27;20019;-78
2022/08/21 06:12:05;;;;;;;34.95;23.48;;;20.70;99.90;;;;;;5135089;27;20476;-79
2022/08/21 06:14:31;;;;;;;39.40;23.90;;;20.80;99.90;;;;;;5134351;27;20011;-79
2022/08/21 06:17:03;;;;;;;36.05;23.95;;;20.80;99.90;;;;;;5133446;27;20068;-79
2022/08/21 06:19:28;;;;;;;36.33;22.95;;;20.90;99.90;;;;;;5118294;27;20047;-78
2022/08/21 06:21:54;;;;;;;33.67;23.30;;;21.00;99.90;;;;;;5123685;27;20047;-78
2022/08/21 06:24:20;;;;;;;32.55;22.88;;;21.10;99.90;;;;;;5133215;27;20418;-78
2022/08/21 06:26:46;;;;;;;31.13;22.85;;;21.20;99.90;;;;;;5134720;27;20053;-78
2022/08/21 06:29:16;;;;;;;38.28;22.40;;;21.30;99.90;;;;;;5132923;27;20094;-78
2022/08/21 06:31:42;;;;;;;32.78;22.25;;;21.30;99.90;;;;;;5132966;27;20095;-78
2022/08/21 06:34:08;;;;;;;34.50;23.58;;;21.30;99.90;;;;;;5134434;27;20027;-79
2022/08/21 06:36:33;;;;;;;30.98;21.05;;;21.40;99.90;;;;;;5134428;27;20023;-78
2022/08/21 06:38:59;;;;;;;39.85;23.63;;;21.30;99.90;;;;;;5133228;27;20030;-75
2022/08/21 06:41:25;;;;;;;33.63;23.60;;;21.50;99.90;;;;;;5133174;27;20027;-80
2022/08/21 06:43:51;;;;;;;31.00;20.65;;;21.60;99.90;;;;;;5132905;27;20383;-80
2022/08/21 06:46:17;;;;;;;36.10;23.77;;;21.70;99.90;;;;;;5133834;27;20015;-79
2022/08/21 06:48:42;;;;;;;36.63;22.55;;;21.70;99.90;;;;;;5130548;27;20074;-80
2022/08/21 06:51:08;;;;;;;30.33;21.88;;;21.70;99.90;;;;;;5123901;27;20068;-80
2022/08/21 06:53:35;;;;;;;27.13;21.15;;;21.80;99.90;;;;;;5129849;27;20082;-81
2022/08/21 06:56:01;;;;;;;28.60;20.20;;;22.00;99.90;;;;;;5123623;27;20445;-79
2022/08/21 06:58:27;;;;;;;31.15;22.00;;;22.20;99.90;;;;;;5132509;27;20030;-79
2022/08/21 07:00:53;;;;;;;33.70;21.63;;;22.30;99.90;;;;;;5133610;27;20016;-79
2022/08/21 07:03:21;;;;;;;26.63;19.73;;;22.40;99.90;;;;;;5131683;27;20064;-79
2022/08/21 07:05:47;;;;;;;32.70;21.55;;;22.50;99.90;;;;;;5132828;27;20054;-79
2022/08/21 07:08:13;;;;;;;32.13;22.13;;;22.70;99.90;;;;;;5128061;27;20047;-79
2022/08/21 07:10:39;;;;;;;33.08;21.80;;;22.80;99.90;;;;;;5135513;27;20046;-79
2022/08/21 07:13:05;;;;;;;27.90;19.73;;;22.90;99.90;;;;;;5133223;27;20070;-80
2022/08/21 07:15:30;;;;;;;29.08;21.38;;;23.00;99.90;;;;;;5132276;27;20028;-80
2022/08/21 07:17:57;;;;;;;30.02;22.05;;;23.10;99.90;;;;;;5129008;27;20077;-79
2022/08/21 07:20:23;;;;;;;31.05;20.33;;;23.00;99.90;;;;;;5123635;28;20533;-80
2022/08/21 07:22:49;;;;;;;28.00;20.27;;;23.10;99.90;;;;;;5133615;27;20102;-79
2022/08/21 07:25:14;;;;;;;29.73;20.35;;;23.00;99.90;;;;;;5133988;27;20023;-80
2022/08/21 07:27:40;;;;;;;24.92;20.08;;;23.10;99.90;;;;;;5132173;27;20106;-80
2022/08/21 07:30:06;;;;;;;27.00;20.33;;;23.00;99.90;;;;;;5133585;27;20384;-80
2022/08/21 07:32:32;;;;;;;27.02;20.83;;;23.00;99.90;;;;;;5132179;28;20114;-76
2022/08/21 07:34:57;;;;;;;25.15;19.73;;;23.10;99.90;;;;;;5133910;27;20098;-80
2022/08/21 07:37:24;;;;;;;28.17;20.45;;;23.20;99.90;;;;;;5137640;27;20027;-80
2022/08/21 07:39:50;;;;;;;23.30;18.80;;;23.20;99.90;;;;;;5138049;27;20031;-80
2022/08/21 07:42:16;;;;;;;25.73;19.30;;;23.10;99.90;;;;;;5137506;27;20019;-80
2022/08/21 07:44:42;;;;;;;21.90;19.30;;;23.00;99.90;;;;;;5137354;27;20116;-80
2022/08/21 07:47:08;;;;;;;27.50;18.35;;;22.80;99.90;;;;;;5136194;27;20147;-81
2022/08/21 07:49:34;;;;;;;27.23;21.00;;;22.70;99.90;;;;;;5129256;27;20128;-81
2022/08/21 07:52:01;;;;;;;30.23;21.17;;;22.60;99.90;;;;;;5100744;27;20040;-79
2022/08/21 07:54:26;;;;;;;30.95;21.45;;;22.60;99.90;;;;;;5096895;27;20055;-78
2022/08/21 07:56:52;;;;;;;31.45;22.38;;;22.60;99.90;;;;;;5108730;27;20055;-78
2022/08/21 07:59:17;;;;;;;24.90;21.23;;;22.40;99.90;;;;;;5098821;27;20037;-79
2022/08/21 08:01:43;;;;;;;32.97;22.92;;;22.40;99.90;;;;;;5105836;27;20042;-78
2022/08/21 08:04:09;;;;;;;31.13;22.90;;;22.40;99.90;;;;;;5112994;27;20034;-78
2022/08/21 08:06:34;;;;;;;33.38;22.90;;;22.30;99.90;;;;;;5107757;28;20152;-80
2022/08/21 08:09:03;;;;;;;32.95;25.52;;;22.30;99.90;;;;;;5107689;27;20028;-78
2022/08/21 08:11:29;;;;;;;34.15;25.80;;;22.30;99.90;;;;;;5127364;27;20087;-81
2022/08/21 08:13:57;;;;;;;34.55;26.33;;;22.20;99.90;;;;;;5136563;27;20106;-82
2022/08/21 08:16:23;;;;;;;46.00;31.58;;;22.20;99.90;;;;;;5137261;27;20054;-82
2022/08/21 08:18:49;;;;;;;44.33;31.10;;;22.10;99.90;;;;;;5137014;27;20027;-82
2022/08/21 08:21:15;;;;;;;46.78;32.10;;;22.20;99.90;;;;;;5136942;27;20572;-79
2022/08/21 08:23:41;;;;;;;44.03;32.63;;;22.10;99.90;;;;;;5136823;27;20055;-81
2022/08/21 08:26:07;;;;;;;44.88;31.55;;;22.00;99.90;;;;;;5135514;27;20015;-81
2022/08/21 08:28:33;;;;;;;48.90;35.47;;;21.80;99.90;;;;;;5132858;27;20106;-82
2022/08/21 08:31:00;;;;;;;49.58;34.08;;;21.70;99.90;;;;;;5136427;27;20091;-82
2022/08/21 08:33:26;;;;;;;50.75;33.00;;;21.70;99.90;;;;;;5136526;27;20034;-82
2022/08/21 08:35:52;;;;;;;46.00;33.25;;;21.80;99.90;;;;;;5136573;27;20024;-81
2022/08/21 08:38:20;;;;;;;42.58;31.65;;;21.90;99.90;;;;;;5109871;27;20084;-82
2022/08/21 08:41:22;;;;;;;42.47;30.73;;;21.90;99.90;;;;;;5131092;27;20471;-82
2022/08/21 08:43:54;;;;;;;45.65;28.80;;;21.80;99.90;;;;;;5092210;28;20481;-83
2022/08/21 08:46:47;;;;;;;44.20;29.95;;;21.80;99.90;;;;;;5124876;27;20058;-82
2022/08/21 08:49:15;;;;;;;40.35;29.20;;;21.80;99.90;;;;;;5121315;27;20053;-82
2022/08/21 08:51:40;;;;;;;44.35;29.95;;;21.70;99.90;;;;;;5136289;27;20114;-83
2022/08/21 08:54:13;;;;;;;43.05;28.02;;;21.70;99.90;;;;;;5114596;27;20055;-83
2022/08/21 08:56:39;;;;;;;34.03;20.05;;;21.60;99.90;;;;;;5126942;27;20068;-83
2022/08/21 08:59:25;;;;;;;26.35;18.10;;;21.30;99.90;;;;;;5130960;27;20376;-82
2022/08/21 09:01:51;;;;;;;26.85;14.15;;;21.00;99.90;;;;;;5136314;27;20094;-80
2022/08/21 09:04:25;;;;;;;20.77;13.95;;;20.70;99.90;;;;;;5127157;27;20054;-80
2022/08/21 09:07:00;;;;;;;36.13;13.80;;;20.60;99.90;;;;;;5134416;27;20506;-80
2022/08/21 09:10:03;;;;;;;19.23;13.00;;;20.50;99.90;;;;;;5133567;27;20023;-82
2022/08/21 09:12:42;;;;;;;23.02;12.18;;;20.50;99.90;;;;;;5130251;27;20034;-82
2022/08/21 09:15:23;;;;;;;17.02;11.23;;;20.50;99.90;;;;;;5122557;27;20020;-81
2022/08/21 09:18:17;;;;;;;19.17;11.10;;;20.50;99.90;;;;;;5107115;27;20087;-81
2022/08/21 09:21:01;;;;;;;19.40;10.85;;;20.50;99.90;;;;;;5091746;28;20164;-81
2022/08/21 09:23:57;;;;;;;15.80;10.70;;;20.70;99.90;;;;;;5093819;27;20040;-82
2022/08/21 09:26:27;;;;;;;20.02;11.15;;;20.90;99.90;;;;;;5092733;27;20111;-81
2022/08/21 09:28:55;;;;;;;16.83;11.15;;;21.00;99.90;;;;;;5105314;27;20404;-81
2022/08/21 09:31:22;;;;;;;17.38;11.75;;;21.10;99.90;;;;;;5099709;27;20023;-81
2022/08/21 09:33:49;;;;;;;18.25;10.98;;;21.20;99.90;;;;;;5097412;28;20393;-82
2022/08/21 09:36:30;;;;;;;18.40;11.40;;;21.30;99.90;;;;;;5093676;28;20020;-81
2022/08/21 09:38:56;;;;;;;16.08;10.65;;;21.40;99.90;;;;;;5098079;28;20028;-81
2022/08/21 09:41:34;;;;;;;17.92;9.77;;;21.60;99.90;;;;;;5093374;28;20039;-82
2022/08/21 09:44:00;;;;;;;19.58;11.20;;;21.80;99.90;;;;;;5095694;28;20052;-81
2022/08/21 09:46:28;;;;;;;19.02;11.35;;;21.80;99.90;;;;;;5095828;28;20039;-82
2022/08/21 09:48:59;;;;;;;15.18;11.13;;;22.10;99.90;;;;;;5100587;28;20083;-81
2022/08/21 09:51:35;;;;;;;15.95;10.20;;;22.20;99.90;;;;;;5103311;28;20471;-81
2022/08/21 09:54:07;;;;;;;17.70;12.18;;;22.30;99.90;;;;;;5095580;28;20020;-81
2022/08/21 09:59:31;;;;;;;19.08;13.75;;;22.20;99.90;;;;;;5108773;27;20186;-81
2022/08/21 10:02:01;;;;;;;20.60;13.48;;;22.30;99.90;;;;;;5105365;27;20389;-82
2022/08/21 10:04:35;;;;;;;17.75;12.38;;;22.50;99.90;;;;;;5118901;27;20106;-81
2022/08/21 10:07:13;;;;;;;18.90;13.38;;;22.70;99.90;;;;;;5103533;27;20099;-82
2022/08/21 10:09:39;;;;;;;22.98;13.25;;;22.70;99.90;;;;;;5092489;28;20012;-81
2022/08/21 10:12:19;;;;;;;21.13;13.73;;;22.80;99.90;;;;;;5093095;27;20431;-81
2022/08/21 10:15:05;;;;;;;21.27;15.00;;;22.80;99.90;;;;;;5104522;28;20449;-81
2022/08/21 10:17:42;;;;;;;24.05;15.20;;;22.80;99.90;;;;;;5092116;27;20039;-81
2022/08/21 10:20:13;;;;;;;18.98;14.63;;;23.00;99.90;;;;;;5117478;27;20019;-81
2022/08/21 10:23:17;;;;;;;25.57;14.80;;;23.30;99.90;;;;;;5105010;27;20046;-81
2022/08/21 10:26:16;;;;;;;20.33;14.43;;;23.60;99.90;;;;;;5123055;27;20035;-81
2022/08/21 10:29:03;;;;;;;20.17;12.90;;;23.70;99.90;;;;;;5111016;27;20039;-81
2022/08/21 10:31:38;;;;;;;24.75;15.70;;;23.70;99.90;;;;;;5106719;27;20024;-81
2022/08/21 10:34:22;;;;;;;20.77;13.63;;;23.60;99.90;;;;;;5111762;27;20031;-81
2022/08/21 10:37:31;;;;;;;22.25;14.07;;;23.50;99.90;;;;;;5109304;27;20027;-81
2022/08/21 10:40:13;;;;;;;25.67;16.52;;;23.50;99.90;;;;;;5106009;27;20030;-84
2022/08/21 10:43:07;;;;;;;19.27;13.10;;;23.50;99.90;;;;;;5090680;28;20035;-83
2022/08/21 10:45:41;;;;;;;17.70;12.80;;;23.50;99.90;;;;;;5094670;27;20084;-83
2022/08/21 10:48:15;;;;;;;22.05;14.25;;;23.60;99.90;;;;;;5092494;28;20097;-83
2022/08/21 10:50:55;;;;;;;20.00;12.90;;;23.30;99.90;;;;;;5111643;28;20043;-82
2022/08/21 10:53:54;;;;;;;20.20;14.38;;;23.30;99.90;;;;;;5114399;27;20465;-82
2022/08/21 10:56:28;;;;;;;20.10;12.40;;;23.20;99.90;;;;;;5093855;28;20085;-81
2022/08/21 10:59:12;;;;;;;16.40;12.32;;;23.10;99.90;;;;;;5102687;28;20027;-81
2022/08/21 11:02:10;;;;;;;21.40;12.43;;;23.10;99.90;;;;;;5113549;28;20027;-82
2022/08/21 11:04:53;;;;;;;16.30;11.63;;;23.30;99.90;;;;;;5107527;28;20036;-81
2022/08/21 11:07:20;;;;;;;;;;;23.50;99.90;;;;;;5111371;28;20020;-82
2022/08/21 11:09:48;;;;;;;15.85;10.90;;;23.60;99.90;;;;;;5110524;28;20272;-82
2022/08/21 11:12:35;;;;;;;17.45;10.35;;;23.70;99.90;;;;;;5111176;28;20027;-81
2022/08/21 11:15:21;;;;;;;14.60;10.68;;;23.80;99.90;;;;;;5103185;28;20111;-81
2022/08/21 11:17:59;;;;;;;13.13;9.85;;;23.90;99.90;;;;;;5103366;28;20467;-81
2022/08/21 11:20:37;;;;;;;15.40;10.20;;;24.00;99.90;;;;;;5108326;28;20080;-81
2022/08/21 11:23:10;;;;;;;12.30;9.15;;;24.20;99.90;;;;;;5108983;28;20016;-81
2022/08/21 11:25:44;;;;;;;13.98;9.93;;;24.60;99.90;;;;;;5091126;28;20023;-82
2022/08/21 11:28:40;;;;;;;13.07;9.68;;;24.80;99.90;;;;;;5098625;27;20062;-80
2022/08/21 11:31:24;;;;;;;12.73;9.65;;;25.10;99.90;;;;;;5091137;28;20065;-80
2022/08/21 11:34:07;;;;;;;12.90;10.70;;;25.20;99.90;;;;;;5096327;27;20089;-80
2022/08/21 11:36:50;;;;;;;13.75;11.23;;;25.20;99.90;;;;;;5090663;28;20063;-80
2022/08/21 11:39:47;;;;;;;24.73;15.82;;;25.40;99.90;;;;;;5094697;27;20036;-80
2022/08/21 11:42:15;;;;;;;25.20;17.67;;;25.30;99.90;;;;;;5092390;28;20028;-80
2022/08/21 11:45:01;;;;;;;22.65;16.35;;;25.00;99.90;;;;;;5096340;28;20024;-80
2022/08/21 11:47:43;;;;;;;24.88;14.82;;;25.00;99.90;;;;;;5091525;27;20078;-80
2022/08/21 11:50:14;;;;;;;18.90;15.48;;;24.90;99.90;;;;;;5091244;28;20044;-80
2022/08/21 11:52:57;;;;;;;25.88;16.10;;;24.90;99.90;;;;;;5091351;27;20044;-81
2022/08/21 11:55:25;;;;;;;26.15;18.92;;;24.90;99.90;;;;;;5091301;28;20028;-82
2022/08/21 11:57:59;;;;;;;20.73;15.23;;;24.70;99.90;;;;;;5095829;27;20044;-82
2022/08/21 12:00:37;;;;;;;17.70;13.70;;;24.70;99.90;;;;;;5092838;28;20397;-83
2022/08/21 12:03:17;;;;;;;19.08;14.48;;;24.60;99.90;;;;;;5095582;27;20028;-83
2022/08/21 12:05:54;;;;;;;17.52;14.07;;;24.60;99.90;;;;;;5095995;28;20020;-84
2022/08/21 12:08:37;;;;;;;17.45;13.02;;;24.50;99.90;;;;;;5092348;27;20036;-83
2022/08/21 12:11:16;;;;;;;15.73;12.65;;;24.30;99.90;;;;;;5091236;28;20099;-83
2022/08/21 12:14:14;;;;;;;18.65;13.77;;;24.30;99.90;;;;;;5100270;27;20051;-81
2022/08/21 12:16:42;;;;;;;16.77;14.02;;;24.30;99.90;;;;;;5090025;28;20378;-81
2022/08/21 12:19:10;;;;;;;14.48;12.00;;;24.40;99.90;;;;;;5089986;27;20039;-82
2022/08/21 12:22:01;;;;;;;18.83;13.23;;;24.30;99.90;;;;;;5094125;28;20081;-82
2022/08/21 12:24:26;;;;;;;14.25;12.40;;;24.10;99.90;;;;;;5094608;27;20036;-81
2022/08/21 12:27:12;;;;;;;18.10;13.13;;;24.00;99.90;;;;;;5093719;28;20030;-81
2022/08/21 12:29:44;;;;;;;16.98;12.65;;;24.10;99.90;;;;;;5100420;27;20040;-81
2022/08/21 12:32:10;;;;;;;18.40;14.60;;;24.20;99.90;;;;;;5094969;28;20082;-81
2022/08/21 12:34:40;;;;;;;16.33;12.52;;;24.10;99.90;;;;;;5097492;27;20485;-80
2022/08/21 12:37:52;;;;;;;17.45;12.98;;;24.10;99.90;;;;;;5094893;28;20095;-80
2022/08/21 12:40:36;;;;;;;16.20;13.77;;;23.90;99.90;;;;;;5094123;28;20119;-80
2022/08/21 12:43:03;;;;;;;18.85;14.15;;;23.80;99.90;;;;;;5095382;27;20032;-80
2022/08/21 12:45:48;;;;;;;19.92;14.85;;;23.70;99.90;;;;;;5093205;28;20081;-80
2022/08/21 12:48:19;;;;;;;17.70;13.82;;;23.60;99.90;;;;;;5094485;27;20016;-81